Terminal Aerodrome Forecast
Issued by NWS

Home | Current Version | Previous Version | Graphics & Text | Print | Product List | Glossary On
Versions: 1 2 3 4 5 6 7 8 9 10 11 12 13 14 15 16
000
FTUS43 KPAH 292345
TAFOWB
TAF
KOWB 292345Z 3000/3024 17011G20KT P6SM SCT035 BKN150
     FM301600 18015G23KT 6SM -SHRA VCTS BKN015CB OVC060=

USA.gov is the U.S. government's official web portal to all federal, state and local government web resources and services.